Trumbauersville, Pennsylvania
Current Conditions -  °F | °C
As of 1:35 PM on Saturday 20 Dec 2014 (Local Time) from KUKT Reporting Station
Overcast Overcast  
Wind Chill: 32°   Ceiling: 2600
Heat Index: 32°   Visibility: 10mi
Dew Point: 23°   Wind: 3mph
Humidity: 69%   Direction: 120°ESE
Pressure: 30.25"   Gusts: NA
Location:  40.41°N, 75.38°W
Report Text: KUKT 201835Z AUTO 12003KT 10SM OVC026 00/M05 A3025 RMK AO1
Loading
Personal Weather Stations






























Interactive Weather Map New forecast layout! Learn more

10-Day Weather Forecast

Advertisements
Track Severe Weather on mobile